Time;durP1;ratioP1;P1;durP2;ratioP2;P2;SDS_P1;SDS_P2;PMS_P1;PMS_P2;Temp;Humidity;BMP_temperature;BMP_pressure;BME280_temperature;BME280_humidity;BME280_pressure;Samples;Min_cycle;Max_cycle;Signal;HPM_P1;HPM_P2
2023/09/14 00:00:20;;;;;;;0.10;0.10;;;;;;;21.95;53.89;102377.88;5073545;28;20032;-70
2023/09/14 00:02:45;;;;;;;0.15;0.15;;;;;;;22.04;52.97;102371.66;5073479;28;20056;-68
2023/09/14 00:05:11;;;;;;;0.20;0.20;;;;;;;21.73;54.76;102376.06;5073829;28;20031;-68
2023/09/14 00:07:37;;;;;;;0.10;0.10;;;;;;;21.71;54.16;102367.28;5073306;28;20025;-69
2023/09/14 00:10:03;;;;;;;0.20;0.20;;;;;;;21.94;53.44;102373.50;5073097;28;20098;-69
2023/09/14 00:12:28;;;;;;;0.20;0.20;;;;;;;21.85;53.76;102367.69;5073234;28;20086;-68
2023/09/14 00:14:54;;;;;;;0.10;0.10;;;;;;;21.50;53.99;102370.94;5073411;28;20162;-69
2023/09/14 00:17:19;;;;;;;0.30;0.30;;;;;;;21.81;54.76;102372.88;5073649;28;20021;-70
2023/09/14 00:19:44;;;;;;;0.10;0.10;;;;;;;21.71;54.64;102369.19;5073022;28;20029;-69
2023/09/14 00:22:10;;;;;;;0.20;0.20;;;;;;;21.88;53.80;102369.91;5073146;28;20028;-69
2023/09/14 00:24:36;;;;;;;0.20;0.20;;;;;;;21.64;55.00;102368.63;5073194;28;20033;-69
2023/09/14 00:27:03;;;;;;;0.10;0.10;;;;;;;21.59;55.21;102374.03;5073349;28;20041;-70
2023/09/14 00:29:28;;;;;;;0.10;0.10;;;;;;;21.67;54.62;102373.53;5064860;28;20033;-68
2023/09/14 00:31:54;;;;;;;0.20;0.20;;;;;;;21.59;54.31;102363.09;5073520;28;20030;-69
2023/09/14 00:34:19;;;;;;;0.10;0.10;;;;;;;21.61;53.46;102369.94;5072585;28;20029;-70
2023/09/14 00:36:45;;;;;;;0.10;0.10;;;;;;;21.54;54.59;102366.59;5072331;28;20070;-69
2023/09/14 00:39:10;;;;;;;0.15;0.15;;;;;;;21.44;54.23;102369.25;5087459;28;20548;-69
2023/09/14 00:41:36;;;;;;;0.10;0.10;;;;;;;21.30;55.09;102372.69;5093174;28;20368;-68
2023/09/14 00:44:01;;;;;;;0.10;0.10;;;;;;;21.41;54.85;102366.19;5087722;28;20028;-69
2023/09/14 00:46:28;;;;;;;0.20;0.20;;;;;;;21.46;54.43;102369.81;5072505;28;20044;-69
2023/09/14 00:48:55;;;;;;;0.20;0.20;;;;;;;21.47;55.01;102376.94;5072899;28;20113;-69
2023/09/14 00:51:20;;;;;;;0.10;0.10;;;;;;;21.47;54.07;102373.38;5072555;28;20040;-70
2023/09/14 00:53:47;;;;;;;0.10;0.10;;;;;;;21.25;55.48;102367.13;5072556;28;20025;-68
2023/09/14 00:56:13;;;;;;;0.10;0.10;;;;;;;21.30;54.59;102367.19;5072950;28;20040;-69
2023/09/14 00:58:39;;;;;;;0.10;0.10;;;;;;;21.43;54.04;102364.88;5071075;28;20044;-69
2023/09/14 01:01:04;;;;;;;0.10;0.10;;;;;;;21.17;55.14;102365.69;5072181;28;20044;-68
2023/09/14 01:03:30;;;;;;;0.20;0.20;;;;;;;21.24;55.10;102369.06;5072514;28;20407;-69
2023/09/14 01:05:58;;;;;;;0.15;0.15;;;;;;;21.09;55.83;102359.91;5072375;28;20055;-69
2023/09/14 01:08:23;;;;;;;0.10;0.10;;;;;;;21.26;55.31;102369.63;5072184;28;20373;-68
2023/09/14 01:10:49;;;;;;;0.17;0.17;;;;;;;21.43;55.05;102370.34;5072544;28;20032;-69
2023/09/14 01:13:29;;;;;;;0.20;0.20;;;;;;;21.38;55.07;102372.22;5072195;28;20531;-70
2023/09/14 01:16:05;;;;;;;0.20;0.20;;;;;;;21.25;55.13;102372.59;5071884;28;20036;-69
2023/09/14 01:18:56;;;;;;;0.17;0.17;;;;;;;21.12;55.62;102362.94;5072123;28;20047;-70
2023/09/14 01:21:59;;;;;;;0.17;0.17;;;;;;;21.19;55.35;102373.66;5072093;28;20119;-68
2023/09/14 01:24:46;;;;;;;0.10;0.10;;;;;;;21.14;55.63;102377.16;5072085;28;20036;-68
2023/09/14 01:27:12;;;;;;;0.20;0.20;;;;;;;20.97;55.79;102363.56;5071780;28;20037;-68
2023/09/14 01:29:40;;;;;;;0.20;0.20;;;;;;;21.09;55.45;102363.44;5071552;28;20036;-69
2023/09/14 01:32:06;;;;;;;0.20;0.20;;;;;;;20.91;55.57;102363.78;5071795;28;20036;-69
2023/09/14 01:34:31;;;;;;;0.13;0.13;;;;;;;20.86;55.98;102369.16;5079052;28;20032;-70
2023/09/14 01:36:58;;;;;;;0.10;0.10;;;;;;;21.03;55.74;102361.72;5091771;28;20500;-69
2023/09/14 01:39:25;;;;;;;0.10;0.10;;;;;;;21.02;56.27;102364.72;5092275;28;20097;-69
2023/09/14 01:41:54;;;;;;;0.10;0.10;;;;;;;21.06;55.31;102360.41;5082660;28;20500;-69
2023/09/14 01:44:27;;;;;;;0.20;0.20;;;;;;;20.87;55.66;102357.19;5071802;28;20023;-69
2023/09/14 01:46:54;;;;;;;0.10;0.10;;;;;;;20.90;54.78;102360.22;5071668;28;20767;-69
2023/09/14 01:49:19;;;;;;;0.17;0.17;;;;;;;21.03;54.14;102361.72;5071455;28;20033;-69
2023/09/14 01:51:45;;;;;;;0.10;0.10;;;;;;;20.95;55.02;102363.00;5052863;28;20052;-69
2023/09/14 01:54:11;;;;;;;0.20;0.20;;;;;;;20.67;55.48;102357.78;5053173;28;20074;-68
2023/09/14 01:56:36;;;;;;;0.10;0.10;;;;;;;20.67;55.50;102360.50;5071081;28;20024;-69
2023/09/14 01:59:02;;;;;;;0.10;0.10;;;;;;;20.57;56.17;102360.38;5071605;28;20025;-68
2023/09/14 02:01:27;;;;;;;0.10;0.10;;;;;;;20.46;55.90;102363.25;5071008;28;20040;-69
2023/09/14 02:03:53;;;;;;;0.10;0.10;;;;;;;20.57;55.36;102354.91;5071113;28;20531;-69
2023/09/14 02:06:18;;;;;;;0.10;0.10;;;;;;;20.64;55.71;102357.44;5071122;28;20037;-70
2023/09/14 02:08:43;;;;;;;0.20;0.20;;;;;;;20.65;55.46;102356.38;5070416;28;20114;-68
2023/09/14 02:11:09;;;;;;;0.20;0.20;;;;;;;20.76;55.19;102352.66;5070970;28;20065;-68
2023/09/14 02:13:37;;;;;;;0.17;0.17;;;;;;;20.53;55.23;102355.66;5070407;28;20611;-69
2023/09/14 02:16:03;;;;;;;0.10;0.10;;;;;;;20.48;55.13;102350.16;5070163;28;20043;-69
2023/09/14 02:18:29;;;;;;;0.10;0.10;;;;;;;20.50;55.34;102339.81;5070246;28;20040;-69
2023/09/14 02:20:54;;;;;;;0.10;0.10;;;;;;;20.58;56.16;102348.34;5070416;28;20040;-69
2023/09/14 02:23:19;;;;;;;0.15;0.15;;;;;;;20.64;56.29;102344.59;5070941;28;20059;-69
2023/09/14 02:25:45;;;;;;;0.10;0.10;;;;;;;20.70;55.35;102340.00;5070307;28;20043;-68
2023/09/14 02:28:11;;;;;;;0.10;0.10;;;;;;;20.45;56.18;102343.28;5069924;28;20024;-69
2023/09/14 02:30:40;;;;;;;0.10;0.10;;;;;;;20.57;55.83;102343.16;5071862;28;20041;-68
2023/09/14 02:33:07;;;;;;;0.10;0.10;;;;;;;20.41;56.00;102344.03;5070366;28;20020;-69
2023/09/14 02:35:33;;;;;;;0.10;0.10;;;;;;;20.51;55.17;102342.28;5067609;28;20479;-68
2023/09/14 02:37:58;;;;;;;0.20;0.20;;;;;;;20.44;56.00;102343.53;5070508;28;20024;-69
2023/09/14 02:40:24;;;;;;;0.17;0.17;;;;;;;20.14;56.60;102336.59;5052125;28;20040;-68
2023/09/14 02:42:49;;;;;;;0.20;0.20;;;;;;;20.28;55.75;102338.97;5069756;28;20546;-69
2023/09/14 02:45:14;;;;;;;0.20;0.20;;;;;;;20.44;55.40;102343.53;5069499;28;20039;-69
2023/09/14 02:47:40;;;;;;;0.10;0.10;;;;;;;20.38;56.26;102342.66;5069817;28;20012;-69
2023/09/14 02:50:05;;;;;;;0.10;0.10;;;;;;;20.39;55.81;102332.53;5070624;28;20471;-69
2023/09/14 02:52:31;;;;;;;0.17;0.17;;;;;;;20.42;56.15;102340.25;5069879;28;20041;-70
2023/09/14 02:54:56;;;;;;;0.20;0.20;;;;;;;20.44;55.83;102338.88;5069790;28;20029;-69
2023/09/14 02:57:21;;;;;;;0.10;0.10;;;;;;;20.38;55.25;102344.56;5069810;28;20033;-69
2023/09/14 02:59:47;;;;;;;0.13;0.13;;;;;;;20.34;56.83;102346.16;5069786;28;20109;-69
2023/09/14 03:02:12;;;;;;;0.10;0.10;;;;;;;20.32;56.75;102340.94;5070038;28;20578;-69
2023/09/14 03:04:38;;;;;;;0.10;0.10;;;;;;;20.42;55.82;102337.50;5069927;28;20047;-69
2023/09/14 03:07:03;;;;;;;0.10;0.10;;;;;;;20.39;56.04;102332.53;5069658;28;20028;-69
2023/09/14 03:09:29;;;;;;;0.20;0.20;;;;;;;20.22;56.43;102337.25;5070058;28;20048;-69
2023/09/14 03:11:54;;;;;;;0.20;0.20;;;;;;;20.07;56.29;102330.47;5070040;28;20415;-68
2023/09/14 03:14:20;;;;;;;0.20;0.20;;;;;;;20.11;56.57;102336.22;5070619;28;20052;-69
2023/09/14 03:16:45;;;;;;;0.20;0.20;;;;;;;20.05;56.94;102334.50;5069693;28;20087;-69
2023/09/14 03:19:11;;;;;;;0.30;0.30;;;;;;;20.07;56.52;102338.66;5070031;28;20044;-68
2023/09/14 03:21:36;;;;;;;0.20;0.20;;;;;;;20.22;55.79;102343.53;5034586;28;20616;-69
2023/09/14 03:24:01;;;;;;;0.13;0.13;;;;;;;20.25;56.33;102343.00;5070064;28;20043;-69
2023/09/14 03:26:27;;;;;;;0.10;0.10;;;;;;;20.28;55.92;102345.25;5072611;28;20039;-69
2023/09/14 03:28:53;;;;;;;0.20;0.20;;;;;;;20.20;56.10;102348.41;5090610;28;20086;-69
2023/09/14 03:31:18;;;;;;;0.20;0.20;;;;;;;20.08;56.12;102344.94;5089764;28;20269;-69
2023/09/14 03:33:49;;;;;;;0.20;0.20;;;;;;;20.25;55.55;102351.22;5086045;28;20086;-70
2023/09/14 03:36:18;;;;;;;;;;;;;;;20.36;55.61;102346.72;5070302;28;20041;-69
2023/09/14 03:38:44;;;;;;;0.15;0.15;;;;;;;19.97;56.62;102348.59;5070080;28;19920;-69
2023/09/14 03:41:10;;;;;;;0.25;0.25;;;;;;;20.00;56.59;102351.66;5085414;28;20544;-68
2023/09/14 03:43:36;;;;;;;0.20;0.20;;;;;;;20.07;55.89;102344.09;5069636;28;20500;-68
2023/09/14 03:46:02;;;;;;;0.20;0.20;;;;;;;20.15;55.20;102346.41;5069469;28;20032;-69
2023/09/14 03:48:27;;;;;;;0.10;0.10;;;;;;;20.17;54.96;102340.69;5070018;28;20070;-71
2023/09/14 03:50:54;;;;;;;0.30;0.30;;;;;;;20.10;54.87;102346.34;5070021;28;20117;-68
2023/09/14 03:53:19;;;;;;;0.20;0.20;;;;;;;20.11;55.25;102344.41;5070273;28;20099;-69
2023/09/14 03:55:45;;;;;;;0.20;0.20;;;;;;;20.13;55.07;102339.53;5069793;28;20128;-68
2023/09/14 03:58:10;;;;;;;0.20;0.20;;;;;;;20.04;55.08;102339.16;5069416;28;20060;-68
2023/09/14 04:00:36;;;;;;;0.10;0.10;;;;;;;19.95;54.79;102332.47;5069354;28;20523;-68
2023/09/14 04:03:01;;;;;;;0.20;0.20;;;;;;;19.90;55.90;102348.78;5049684;28;20040;-70
2023/09/14 04:05:27;;;;;;;0.20;0.20;;;;;;;20.02;55.26;102338.59;5052641;28;20067;-69
2023/09/14 04:07:52;;;;;;;0.20;0.20;;;;;;;20.09;55.28;102341.94;5059431;28;20365;-69
2023/09/14 04:10:17;;;;;;;0.20;0.20;;;;;;;20.05;55.40;102332.63;5060631;28;20493;-68
2023/09/14 04:12:44;;;;;;;0.20;0.20;;;;;;;20.05;55.18;102331.78;5063629;28;20043;-68
2023/09/14 04:15:10;;;;;;;0.15;0.15;;;;;;;19.88;55.82;102331.00;5069463;28;20102;-69
2023/09/14 04:17:36;;;;;;;0.20;0.20;;;;;;;19.92;55.26;102330.25;5083801;28;20032;-68
2023/09/14 04:20:09;;;;;;;0.13;0.13;;;;;;;19.80;56.04;102325.97;5070054;28;20618;-68
2023/09/14 04:22:34;;;;;;;0.25;0.25;;;;;;;19.91;55.21;102338.69;5070941;28;20064;-68
2023/09/14 04:24:59;;;;;;;0.20;0.20;;;;;;;19.73;56.04;102334.34;5089623;28;20122;-69
2023/09/14 04:27:25;;;;;;;0.10;0.10;;;;;;;19.81;55.04;102333.09;5089480;28;20055;-69
2023/09/14 04:29:50;;;;;;;0.10;0.10;;;;;;;19.77;55.76;102335.47;5086569;28;20037;-68
2023/09/14 04:32:16;;;;;;;0.20;0.20;;;;;;;19.86;55.16;102335.88;5071239;28;20025;-69
2023/09/14 04:34:41;;;;;;;0.17;0.17;;;;;;;19.78;55.22;102339.03;5073026;28;20036;-69
2023/09/14 04:37:07;;;;;;;0.25;0.25;;;;;;;19.77;55.68;102340.13;5072714;28;20036;-68
2023/09/14 04:39:34;;;;;;;0.25;0.25;;;;;;;19.81;55.03;102347.53;5072481;28;20492;-68
2023/09/14 04:42:00;;;;;;;0.10;0.10;;;;;;;19.66;55.84;102344.56;5072575;28;20460;-68
2023/09/14 04:44:25;;;;;;;0.10;0.10;;;;;;;19.64;55.36;102349.44;5071813;28;20058;-70
2023/09/14 04:46:51;;;;;;;0.20;0.20;;;;;;;19.64;55.03;102349.44;5072192;28;20028;-69
2023/09/14 04:49:16;;;;;;;0.20;0.20;;;;;;;19.64;55.40;102346.72;5069164;28;20249;-69
2023/09/14 04:51:42;;;;;;;0.20;0.20;;;;;;;19.67;55.25;102348.97;5071897;28;20131;-69
2023/09/14 04:54:07;;;;;;;0.20;0.20;;;;;;;19.56;55.58;102351.75;5071818;28;20334;-69
2023/09/14 04:56:32;;;;;;;0.20;0.20;;;;;;;19.69;55.07;102355.00;5071578;28;20024;-68
2023/09/14 04:58:58;;;;;;;0.30;0.30;;;;;;;19.64;55.18;102356.81;5071956;28;20480;-69
2023/09/14 05:01:23;;;;;;;0.13;0.13;;;;;;;19.57;55.07;102353.44;5071435;28;20054;-69
2023/09/14 05:03:48;;;;;;;0.13;0.13;;;;;;;19.64;55.26;102359.53;5071413;28;20033;-69
2023/09/14 05:06:14;;;;;;;0.20;0.20;;;;;;;19.45;55.53;102364.41;5071336;28;20596;-68
2023/09/14 05:08:39;;;;;;;0.10;0.10;;;;;;;19.57;55.16;102367.91;5070616;28;20037;-68
2023/09/14 05:11:04;;;;;;;0.20;0.20;;;;;;;19.37;56.05;102372.16;5075999;28;20134;-69
2023/09/14 05:13:30;;;;;;;0.20;0.20;;;;;;;19.51;55.80;102370.78;5089023;28;20384;-68
2023/09/14 05:15:56;;;;;;;0.10;0.10;;;;;;;19.62;55.35;102370.69;5084034;28;20051;-69
2023/09/14 05:18:21;;;;;;;0.10;0.10;;;;;;;19.60;55.29;102372.00;5071730;28;20044;-69
2023/09/14 05:20:47;;;;;;;0.20;0.20;;;;;;;19.18;57.02;102371.53;5071522;28;20025;-68
2023/09/14 05:23:13;;;;;;;0.20;0.20;;;;;;;19.51;56.09;102368.88;5071759;28;20032;-68
2023/09/14 05:25:40;;;;;;;0.13;0.13;;;;;;;19.50;56.83;102372.66;5071319;28;20082;-69
2023/09/14 05:28:06;;;;;;;0.15;0.15;;;;;;;19.62;56.66;102365.25;5070997;28;20025;-67
2023/09/14 05:30:32;;;;;;;0.20;0.20;;;;;;;19.76;55.74;102373.91;5071132;28;20064;-69
2023/09/14 05:32:58;;;;;;;0.15;0.15;;;;;;;19.77;55.26;102370.13;5053096;28;20396;-68
2023/09/14 05:35:24;;;;;;;0.10;0.10;;;;;;;19.76;55.18;102373.91;5071367;28;20035;-68
2023/09/14 05:37:49;;;;;;;0.17;0.17;;;;;;;19.74;56.19;102373.34;5071696;28;20028;-68
2023/09/14 05:40:14;;;;;;;0.20;0.20;;;;;;;19.60;56.64;102367.38;5071545;28;20053;-69
2023/09/14 05:42:41;;;;;;;0.20;0.20;;;;;;;19.56;57.05;102366.22;5071229;28;20037;-68
2023/09/14 05:45:08;;;;;;;0.20;0.20;;;;;;;19.83;56.19;102372.66;5079547;28;20036;-69
2023/09/14 05:47:34;;;;;;;0.13;0.13;;;;;;;19.89;56.46;102370.88;5091225;28;20055;-69
2023/09/14 05:50:00;;;;;;;0.10;0.10;;;;;;;19.68;56.76;102377.06;5091385;28;20026;-69
2023/09/14 05:52:25;;;;;;;0.10;0.10;;;;;;;19.68;57.27;102375.16;5071239;28;20039;-69
2023/09/14 05:54:50;;;;;;;0.20;0.20;;;;;;;19.85;56.85;102381.44;5072062;28;20032;-69
2023/09/14 05:57:16;;;;;;;0.20;0.20;;;;;;;19.95;56.41;102389.78;5086456;28;20032;-69
2023/09/14 05:59:42;;;;;;;0.20;0.20;;;;;;;19.93;56.46;102385.66;5071848;28;20095;-68
2023/09/14 06:02:08;;;;;;;0.20;0.20;;;;;;;20.14;56.28;102393.06;5072040;28;20021;-70
2023/09/14 06:04:34;;;;;;;0.10;0.10;;;;;;;19.97;56.92;102395.81;5071902;28;20037;-70
2023/09/14 06:06:59;;;;;;;0.20;0.20;;;;;;;20.17;56.37;102389.03;5071826;28;20435;-69
2023/09/14 06:09:26;;;;;;;0.10;0.10;;;;;;;20.24;56.76;102395.16;5071224;28;20052;-69
2023/09/14 06:11:52;;;;;;;0.10;0.10;;;;;;;20.39;56.30;102401.66;5071136;28;20153;-70
2023/09/14 06:14:18;;;;;;;0.17;0.17;;;;;;;20.43;56.32;102391.88;5071340;28;20036;-69
2023/09/14 06:16:43;;;;;;;0.20;0.20;;;;;;;20.45;56.31;102395.19;5071093;28;20040;-69
2023/09/14 06:19:09;;;;;;;0.20;0.20;;;;;;;20.51;56.48;102396.06;5070521;28;20349;-69
2023/09/14 06:21:34;;;;;;;0.20;0.20;;;;;;;20.53;56.71;102393.91;5070899;28;20044;-70
2023/09/14 06:24:00;;;;;;;0.30;0.30;;;;;;;20.55;56.50;102398.03;5069176;28;20032;-69
2023/09/14 06:26:29;;;;;;;0.20;0.20;;;;;;;20.61;56.36;102396.19;5070404;28;20056;-69
2023/09/14 06:28:55;;;;;;;0.20;0.20;;;;;;;20.55;56.72;102395.31;5071033;28;20031;-69
2023/09/14 06:31:22;;;;;;;0.17;0.17;;;;;;;20.93;55.44;102399.88;5069910;28;20396;-68
2023/09/14 06:33:49;;;;;;;0.10;0.10;;;;;;;20.71;56.74;102407.25;5073724;28;20599;-68
2023/09/14 06:36:16;;;;;;;0.20;0.20;;;;;;;20.79;56.24;102409.53;5071588;28;20514;-68
2023/09/14 06:38:42;;;;;;;0.10;0.10;;;;;;;20.98;55.04;102406.22;5077411;28;21281;-67
2023/09/14 06:41:07;;;;;;;0.10;0.10;;;;;;;21.19;55.44;102398.28;5072825;28;20078;-69
2023/09/14 06:43:33;;;;;;;0.20;0.20;;;;;;;20.88;56.71;102411.56;5072553;28;20025;-69
2023/09/14 06:45:59;;;;;;;0.10;0.10;;;;;;;21.08;55.69;102410.16;5068896;28;20158;-68
2023/09/14 06:48:24;;;;;;;0.20;0.20;;;;;;;21.13;55.79;102410.25;5069171;28;20039;-69
2023/09/14 06:50:50;;;;;;;0.10;0.10;;;;;;;21.28;55.45;102411.22;5069183;28;20064;-69
2023/09/14 06:53:16;;;;;;;0.10;0.10;;;;;;;21.36;55.48;102415.41;5069388;28;20086;-69
2023/09/14 06:55:42;;;;;;;0.10;0.10;;;;;;;21.30;55.94;102411.78;5067641;28;20044;-68
2023/09/14 06:58:08;;;;;;;0.10;0.10;;;;;;;21.57;55.16;102414.50;5068550;28;20512;-69
2023/09/14 07:00:35;;;;;;;0.20;0.20;;;;;;;21.65;54.80;102412.13;5067960;28;20048;-68
2023/09/14 07:03:02;;;;;;;0.20;0.20;;;;;;;21.75;54.42;102414.13;5065849;28;20032;-68
2023/09/14 07:05:29;;;;;;;0.10;0.10;;;;;;;21.73;54.43;102419.03;5068412;28;20036;-69
2023/09/14 07:07:54;;;;;;;0.17;0.17;;;;;;;21.59;54.53;102413.16;5068190;28;20048;-70
2023/09/14 07:10:20;;;;;;;0.20;0.20;;;;;;;21.73;54.70;102424.50;5068594;28;20055;-69
2023/09/14 07:12:45;;;;;;;0.20;0.20;;;;;;;22.02;54.04;102414.06;5068077;28;20566;-69
2023/09/14 07:15:11;;;;;;;0.20;0.20;;;;;;;22.02;54.16;102420.38;5067984;28;20037;-69
2023/09/14 07:17:36;;;;;;;0.13;0.13;;;;;;;22.01;54.07;102420.66;5068181;28;20054;-68
2023/09/14 07:20:04;;;;;;;0.15;0.15;;;;;;;22.03;53.63;102422.03;5068804;28;20051;-69
2023/09/14 07:22:30;;;;;;;0.20;0.20;;;;;;;21.94;53.76;102420.84;5064683;28;20036;-70
2023/09/14 07:24:55;;;;;;;0.10;0.10;;;;;;;22.25;53.42;102413.69;5067442;28;20043;-69
2023/09/14 07:27:22;;;;;;;0.20;0.20;;;;;;;22.10;53.66;102419.88;5068122;28;20480;-70
2023/09/14 07:29:48;;;;;;;0.10;0.10;;;;;;;21.98;53.69;102418.41;5068626;28;20032;-69
2023/09/14 07:32:14;;;;;;;0.10;0.10;;;;;;;22.39;53.02;102421.16;5050141;28;20028;-69
2023/09/14 07:34:39;;;;;;;0.20;0.20;;;;;;;22.46;52.59;102420.94;5067811;28;20071;-68
2023/09/14 07:37:04;;;;;;;0.20;0.20;;;;;;;22.41;52.94;102424.47;5067805;28;20425;-68
2023/09/14 07:39:30;;;;;;;0.20;0.20;;;;;;;22.54;52.83;102428.66;5049216;28;20037;-69
2023/09/14 07:41:56;;;;;;;0.13;0.13;;;;;;;22.63;52.55;102427.91;5068129;28;20028;-68
2023/09/14 07:44:22;;;;;;;0.10;0.10;;;;;;;22.72;52.85;102422.75;5068051;28;20020;-68
2023/09/14 07:46:47;;;;;;;0.10;0.10;;;;;;;23.06;51.42;102426.69;5085921;28;20413;-68
2023/09/14 07:49:13;;;;;;;0.13;0.13;;;;;;;22.99;51.68;102425.31;5086528;28;20032;-67
2023/09/14 07:51:38;;;;;;;0.17;0.17;;;;;;;22.96;51.80;102428.59;5068884;28;20043;-68
2023/09/14 07:54:04;;;;;;;0.17;0.17;;;;;;;23.02;51.35;102428.31;5085001;28;20063;-68
2023/09/14 07:56:29;;;;;;;0.20;0.20;;;;;;;23.11;51.13;102431.38;5087364;28;20494;-68
2023/09/14 07:58:55;;;;;;;0.10;0.10;;;;;;;22.80;51.83;102430.44;5084907;28;20043;-68
2023/09/14 08:01:20;;;;;;;0.10;0.10;;;;;;;23.48;50.85;102427.38;5086404;28;20676;-68
2023/09/14 08:03:46;;;;;;;0.10;0.10;;;;;;;23.91;48.74;102422.44;5076484;28;20024;-68
2023/09/14 08:06:11;;;;;;;0.17;0.17;;;;;;;23.85;48.12;102438.09;5079261;28;20044;-68
2023/09/14 08:08:37;;;;;;;0.10;0.10;;;;;;;23.84;48.94;102428.19;5089014;28;20127;-68
2023/09/14 08:11:02;;;;;;;0.20;0.20;;;;;;;24.10;48.24;102432.59;5087511;28;20036;-68
2023/09/14 08:13:28;;;;;;;0.10;0.10;;;;;;;23.93;47.83;102429.31;5075620;28;20035;-68
2023/09/14 08:15:53;;;;;;;0.10;0.10;;;;;;;23.87;47.88;102430.41;5079308;28;20635;-68
2023/09/14 08:18:20;;;;;;;0.08;0.08;;;;;;;24.12;47.76;102432.31;5076673;28;20409;-69
2023/09/14 08:20:48;;;;;;;0.10;0.10;;;;;;;23.62;48.32;102435.06;5088831;28;20495;-69
2023/09/14 08:23:19;;;;;;;0.20;0.20;;;;;;;24.12;46.71;102433.16;5090497;28;20024;-67
2023/09/14 08:25:46;;;;;;;0.10;0.10;;;;;;;24.04;47.20;102438.38;5088110;28;20031;-69
2023/09/14 08:28:19;;;;;;;0.10;0.10;;;;;;;24.06;47.31;102439.75;5078600;28;20640;-68
2023/09/14 08:30:46;;;;;;;0.10;0.10;;;;;;;24.01;46.66;102433.41;5076781;28;20032;-67
2023/09/14 08:33:12;;;;;;;0.10;0.10;;;;;;;24.47;47.10;102437.72;5082591;28;20024;-68
2023/09/14 08:35:38;;;;;;;0.10;0.10;;;;;;;24.62;45.94;102429.47;5090848;28;20058;-68
2023/09/14 08:38:05;;;;;;;0.10;0.10;;;;;;;25.17;44.51;102440.25;5088045;28;20114;-69
2023/09/14 08:40:31;;;;;;;0.10;0.10;;;;;;;24.99;43.57;102446.38;5090992;28;20044;-68
2023/09/14 08:42:59;;;;;;;0.10;0.10;;;;;;;25.21;43.32;102435.81;5076734;28;20082;-68
2023/09/14 08:45:25;;;;;;;0.10;0.10;;;;;;;25.58;43.42;102437.22;5078746;28;20555;-69
2023/09/14 08:47:52;;;;;;;0.10;0.10;;;;;;;25.17;42.25;102437.50;5086855;28;20028;-68
2023/09/14 08:50:19;;;;;;;0.10;0.10;;;;;;;25.80;41.39;102440.38;5091112;28;20024;-69
2023/09/14 08:52:46;;;;;;;0.10;0.10;;;;;;;25.07;43.79;102434.78;5090072;28;20090;-70
2023/09/14 08:55:12;;;;;;;0.10;0.10;;;;;;;25.11;42.34;102437.78;5088614;28;20550;-69
2023/09/14 08:57:40;;;;;;;0.10;0.10;;;;;;;25.45;40.52;102432.38;5088215;28;20044;-69
2023/09/14 09:00:17;;;;;;;0.00;0.00;;;;;;;25.43;40.54;102427.16;5090202;28;20048;-69
2023/09/14 09:02:51;;;;;;;0.10;0.10;;;;;;;25.68;41.57;102426.16;5080467;28;20122;-68
2023/09/14 09:05:18;;;;;;;0.00;0.00;;;;;;;25.54;40.81;102419.63;5086331;28;20020;-68
2023/09/14 09:07:47;;;;;;;0.10;0.10;;;;;;;25.42;40.48;102414.50;5090644;28;20500;-69
2023/09/14 09:10:24;;;;;;;0.10;0.10;;;;;;;25.60;40.01;102421.25;5089103;28;20696;-69
2023/09/14 09:12:52;;;;;;;0.10;0.10;;;;;;;25.82;40.79;102422.47;5080493;28;20036;-69
2023/09/14 09:15:18;;;;;;;0.10;0.10;;;;;;;25.75;40.60;102416.44;5087047;28;20040;-70
2023/09/14 09:17:46;;;;;;;0.10;0.10;;;;;;;25.38;41.26;102416.16;5074475;28;20048;-68
2023/09/14 09:20:19;;;;;;;0.00;0.00;;;;;;;25.77;39.24;102421.66;5086067;28;20077;-69
2023/09/14 09:22:45;;;;;;;0.00;0.00;;;;;;;25.76;39.83;102428.28;5084601;28;20033;-68
2023/09/14 09:25:11;;;;;;;0.10;0.10;;;;;;;26.21;38.36;102424.31;5083223;28;20028;-70
2023/09/14 09:27:39;;;;;;;0.00;0.00;;;;;;;25.75;39.55;102421.16;5090102;28;20486;-68
2023/09/14 09:30:11;;;;;;;0.00;0.00;;;;;;;26.41;38.24;102416.66;5089912;28;20036;-69
2023/09/14 09:32:37;;;;;;;0.10;0.10;;;;;;;26.20;37.33;102417.16;5089698;28;20031;-68
2023/09/14 09:35:36;;;;;;;0.10;0.10;;;;;;;26.87;36.96;102423.28;5081446;28;20040;-69
2023/09/14 09:38:15;;;;;;;0.00;0.00;;;;;;;26.34;36.66;102416.16;4984529;28;20447;-70
2023/09/14 09:40:42;;;;;;;0.10;0.10;;;;;;;26.58;36.11;102416.16;4987479;28;20044;-69
2023/09/14 09:43:08;;;;;;;0.00;0.00;;;;;;;25.86;37.29;102412.50;4987724;28;20609;-68
2023/09/14 09:45:38;;;;;;;0.00;0.00;;;;;;;27.07;35.62;102413.88;4987204;28;20053;-68
2023/09/14 09:48:05;;;;;;;0.00;0.00;;;;;;;27.04;36.28;102419.19;4986977;28;20117;-69
2023/09/14 09:50:31;;;;;;;0.00;0.00;;;;;;;26.45;36.28;102409.44;4987872;28;20030;-69
2023/09/14 09:52:57;;;;;;;0.00;0.00;;;;;;;26.25;35.55;102408.81;4987626;28;20101;-69
2023/09/14 09:55:24;;;;;;;0.10;0.10;;;;;;;26.93;34.79;102405.53;4986814;28;20038;-68
2023/09/14 09:57:55;;;;;;;0.00;0.00;;;;;;;27.23;35.29;102407.03;4993486;28;20038;-69
2023/09/14 10:00:28;;;;;;;0.00;0.00;;;;;;;26.74;35.47;102404.69;5006781;28;20033;-68
2023/09/14 10:02:54;;;;;;;0.10;0.10;;;;;;;27.06;35.90;102397.63;5006435;28;20037;-69
2023/09/14 10:05:32;;;;;;;0.00;0.00;;;;;;;27.67;34.85;102401.94;5007113;28;20057;-68
2023/09/14 10:07:59;;;;;;;0.00;0.00;;;;;;;27.78;33.83;102397.88;5012522;28;20048;-69
2023/09/14 10:10:29;;;;;;;0.00;0.00;;;;;;;26.80;34.79;102392.47;5013256;28;20072;-69
2023/09/14 10:12:56;;;;;;;0.00;0.00;;;;;;;26.50;35.99;102395.56;5023417;28;21174;-68
2023/09/14 10:15:25;;;;;;;0.00;0.00;;;;;;;26.72;36.18;102401.41;5080541;28;20432;-67
2023/09/14 10:17:54;;;;;;;0.00;0.00;;;;;;;27.34;35.29;102403.03;5079039;28;20108;-69
2023/09/14 10:20:19;;;;;;;0.00;0.00;;;;;;;27.27;35.84;102402.56;5078881;28;20610;-68
2023/09/14 10:22:46;;;;;;;0.00;0.00;;;;;;;27.52;35.39;102402.19;5089032;28;20123;-68
2023/09/14 10:25:12;;;;;;;0.00;0.00;;;;;;;27.56;35.15;102397.69;5084424;28;20403;-69
2023/09/14 10:27:39;;;;;;;0.00;0.00;;;;;;;27.44;36.21;102399.31;5087281;28;20039;-68
2023/09/14 10:30:05;;;;;;;0.00;0.00;;;;;;;27.46;35.19;102388.78;5086198;28;20076;-69
2023/09/14 10:32:34;;;;;;;0.00;0.00;;;;;;;27.10;36.74;102387.66;5089074;28;20107;-69
2023/09/14 10:35:03;;;;;;;0.00;0.00;;;;;;;26.55;35.75;102392.78;5089229;28;20023;-68
2023/09/14 10:37:29;;;;;;;0.00;0.00;;;;;;;27.30;35.86;102399.19;5078136;28;20040;-69
2023/09/14 10:39:54;;;;;;;0.00;0.00;;;;;;;27.50;34.02;102387.84;5082037;28;20127;-68
2023/09/14 10:42:20;;;;;;;0.00;0.00;;;;;;;28.30;33.59;102388.38;5078364;28;20035;-69
2023/09/14 10:44:46;;;;;;;0.00;0.00;;;;;;;27.31;34.64;102394.50;5080750;28;20413;-69
2023/09/14 10:47:17;;;;;;;0.00;0.00;;;;;;;28.14;34.09;102387.03;5070215;28;20017;-69
2023/09/14 10:49:44;;;;;;;0.00;0.00;;;;;;;28.31;33.37;102389.19;5074684;28;20031;-67
2023/09/14 10:52:10;;;;;;;0.00;0.00;;;;;;;28.35;33.29;102382.75;5088379;28;20094;-69
2023/09/14 10:54:36;;;;;;;0.00;0.00;;;;;;;28.19;33.19;102381.38;5083533;28;20670;-68
2023/09/14 10:57:10;;;;;;;0.00;0.00;;;;;;;28.79;32.88;102378.53;5088257;28;20024;-69
2023/09/14 10:59:54;;;;;;;0.00;0.00;;;;;;;29.24;32.61;102381.09;5084284;28;20046;-69
2023/09/14 11:02:38;;;;;;;0.00;0.00;;;;;;;28.20;32.50;102380.28;5088384;28;20028;-69
2023/09/14 11:05:11;;;;;;;0.00;0.00;;;;;;;27.30;34.81;102379.06;5078017;28;20431;-68
2023/09/14 11:07:39;;;;;;;0.00;0.00;;;;;;;28.50;32.91;102370.56;5087687;28;20040;-69
2023/09/14 11:10:06;;;;;;;0.00;0.00;;;;;;;28.26;32.66;102365.22;5085893;28;20059;-70
2023/09/14 11:12:32;;;;;;;0.00;0.00;;;;;;;28.95;32.74;102375.13;5088660;28;20568;-68
2023/09/14 11:15:16;;;;;;;0.00;0.00;;;;;;;29.57;32.20;102373.34;5069302;28;20040;-69
2023/09/14 11:17:49;;;;;;;0.00;0.00;;;;;;;29.07;31.59;102371.81;5077279;28;20706;-68
2023/09/14 11:20:24;;;;;;;0.00;0.00;;;;;;;28.36;32.27;102366.97;5077508;28;20028;-68
2023/09/14 11:22:51;;;;;;;0.00;0.00;;;;;;;29.15;33.05;102366.34;5088132;28;20056;-69